Time,TemperatureF,DewpointF,PressureIn,WindDirection,WindDirectionDegrees,WindSpeedMPH,WindSpeedGustMPH,Humidity,HourlyPrecipIn,Conditions,Clouds,dailyrainin,SolarRadiationWatts/m^2,SoftwareType,DateUTC
2013-03-06 00:01:00,36.3,36.3,29.67,ESE,106,3.5,3.5,100,0.00,,,0.00,0.0,WeatherDisplay:10.37,2013-03-06 00:01:00,
2013-03-06 00:06:00,36.2,36.2,29.68,SE,128,3.5,3.5,100,0.00,,,0.00,0.0,WeatherDisplay:10.37,2013-03-06 00:06:00,
2013-03-06 00:11:00,36.2,36.2,29.68,SE,144,2.3,2.3,100,0.00,,,0.00,0.0,WeatherDisplay:10.37,2013-03-06 00:11:00,
2013-03-06 00:16:00,36.0,36.0,29.68,SSE,147,3.5,3.5,100,0.00,,,0.00,0.0,WeatherDisplay:10.37,2013-03-06 00:16:00,
2013-03-06 00:21:00,35.9,35.9,29.68,SSE,150,3.5,3.5,100,0.00,,,0.00,0.0,WeatherDisplay:10.37,2013-03-06 00:21:00,
2013-03-06 00:26:00,35.9,35.9,29.68,SSE,151,2.3,2.3,100,0.00,,,0.00,0.0,WeatherDisplay:10.37,2013-03-06 00:26:00,
2013-03-06 00:32:00,36.0,36.0,29.68,SSE,152,3.5,3.5,100,0.00,,,0.00,0.0,WeatherDisplay:10.37,2013-03-06 00:32:00,
2013-03-06 00:37:00,36.2,36.2,29.68,SSE,160,3.5,3.5,100,0.00,,,0.00,0.0,WeatherDisplay:10.37,2013-03-06 00:37:00,
2013-03-06 00:42:00,36.6,36.6,29.69,SSE,148,3.5,3.5,100,0.00,,,0.00,0.0,WeatherDisplay:10.37,2013-03-06 00:42:00,
2013-03-06 00:47:00,36.9,36.9,29.69,SSE,154,2.3,2.3,100,0.00,,,0.00,0.0,WeatherDisplay:10.37,2013-03-06 00:47:00,
2013-03-06 00:53:00,37.2,37.2,29.68,SSE,147,4.6,4.6,100,0.00,,,0.00,0.0,WeatherDisplay:10.37,2013-03-06 00:53:00,
2013-03-06 00:58:00,37.5,37.5,29.68,SSE,150,3.0,3.0,100,0.00,,,0.00,0.0,WeatherDisplay:10.37,2013-03-06 00:58:00,
2013-03-06 01:03:00,37.6,37.6,29.68,SSE,162,3.5,3.5,100,0.00,,,0.00,0.0,WeatherDisplay:10.37,2013-03-06 01:03:00,
2013-03-06 01:08:00,37.6,37.6,29.68,SSE,150,3.0,3.0,100,0.00,,,0.00,0.0,WeatherDisplay:10.37,2013-03-06 01:08:00,
2013-03-06 01:13:00,37.8,37.8,29.68,SSE,148,4.6,4.6,100,0.00,,,0.00,0.0,WeatherDisplay:10.37,2013-03-06 01:13:00,
2013-03-06 01:18:00,37.8,37.8,29.68,SE,143,4.6,4.6,100,0.00,,,0.00,0.0,WeatherDisplay:10.37,2013-03-06 01:18:00,
2013-03-06 01:24:00,37.9,37.9,29.67,SSE,158,8.0,8.0,100,0.00,,,0.00,0.0,WeatherDisplay:10.37,2013-03-06 01:24:00,
2013-03-06 01:29:00,38.2,38.2,29.67,SSE,150,4.6,4.6,100,0.00,,,0.00,0.0,WeatherDisplay:10.37,2013-03-06 01:29:00,
2013-03-06 01:34:00,38.3,38.3,29.68,SE,136,3.5,3.5,100,0.00,,,0.00,0.0,WeatherDisplay:10.37,2013-03-06 01:34:00,
2013-03-06 01:39:00,38.5,38.5,29.68,SSE,147,5.8,5.8,100,0.00,,,0.00,0.0,WeatherDisplay:10.37,2013-03-06 01:39:00,
2013-03-06 01:44:00,38.6,38.6,29.67,SSE,150,9.2,9.2,100,0.00,,,0.00,0.0,WeatherDisplay:10.37,2013-03-06 01:44:00,
2013-03-06 01:50:00,38.8,38.8,29.67,SE,130,5.8,5.8,100,0.00,CLR,,0.00,0.0,WeatherDisplay:10.37,2013-03-06 01:50:00,
2013-03-06 01:55:00,38.9,38.9,29.67,SSE,152,13.8,13.8,100,0.00,CLR,,0.00,0.0,WeatherDisplay:10.37,2013-03-06 01:55:00,
2013-03-06 02:00:00,38.9,38.9,29.67,SSE,148,7.0,14.0,100,0.00,CLR,,0.00,0.0,WeatherDisplay:10.37,2013-03-06 02:00:00,
2013-03-06 02:05:00,39.1,39.1,29.67,SE,138,8.1,8.1,100,0.00,,,0.00,0.0,WeatherDisplay:10.37,2013-03-06 02:05:00,
2013-03-06 02:10:00,39.1,39.1,29.67,South,179,8.1,8.1,100,0.00,,,0.00,0.0,WeatherDisplay:10.37,2013-03-06 02:10:00,
2013-03-06 02:15:00,39.1,39.1,29.67,SE,143,6.9,6.9,100,0.00,,,0.00,0.0,WeatherDisplay:10.37,2013-03-06 02:15:00,
2013-03-06 02:21:00,39.2,39.2,29.67,SSE,164,11.0,11.0,100,0.00,CLR,,0.00,0.0,WeatherDisplay:10.37,2013-03-06 02:21:00,
2013-03-06 02:26:00,39.2,39.2,29.67,SE,141,10.4,10.4,100,0.00,CLR,,0.00,0.0,WeatherDisplay:10.37,2013-03-06 02:26:00,
2013-03-06 02:31:00,39.2,39.2,29.67,SSE,157,11.5,11.5,100,0.00,CLR,,0.00,0.0,WeatherDisplay:10.37,2013-03-06 02:31:00,
2013-03-06 02:36:00,39.3,39.3,29.67,SE,145,6.9,6.9,100,0.00,,,0.00,0.0,WeatherDisplay:10.37,2013-03-06 02:36:00,
2013-03-06 02:41:00,39.3,39.3,29.67,SE,136,11.5,11.5,100,0.00,,,0.00,0.0,WeatherDisplay:10.37,2013-03-06 02:41:00,
2013-03-06 02:46:00,39.3,39.3,29.67,SSE,147,8.1,8.1,100,0.00,,,0.00,0.0,WeatherDisplay:10.37,2013-03-06 02:46:00,
2013-03-06 02:51:00,39.3,39.3,29.67,SE,140,6.9,6.9,100,0.00,,,0.00,0.0,WeatherDisplay:10.37,2013-03-06 02:51:00,
2013-03-06 02:56:00,39.5,39.5,29.67,SSE,155,11.5,11.5,100,0.00,,,0.00,0.0,WeatherDisplay:10.37,2013-03-06 02:56:00,
2013-03-06 03:01:00,39.5,39.5,29.66,NNW,336,9.2,9.2,100,0.00,,,0.00,0.0,WeatherDisplay:10.37,2013-03-06 03:01:00,
2013-03-06 03:07:00,39.5,39.5,29.67,SE,131,13.8,13.8,100,0.00,CLR,,0.00,0.0,WeatherDisplay:10.37,2013-03-06 03:07:00,
2013-03-06 03:12:00,39.5,39.5,29.66,SSE,152,6.9,6.9,100,0.00,,,0.00,0.0,WeatherDisplay:10.37,2013-03-06 03:12:00,
2013-03-06 03:17:00,39.6,39.6,29.66,SSE,162,11.5,11.5,100,0.00,,,0.00,0.0,WeatherDisplay:10.37,2013-03-06 03:17:00,
2013-03-06 03:22:00,39.6,39.6,29.66,SSE,154,9.2,9.2,100,0.00,CLR,,0.00,0.0,WeatherDisplay:10.37,2013-03-06 03:22:00,
2013-03-06 03:27:00,39.6,39.6,29.66,SE,126,11.5,11.5,100,0.00,CLR,,0.00,0.0,WeatherDisplay:10.37,2013-03-06 03:27:00,
2013-03-06 03:33:00,39.6,39.6,29.66,SE,137,11.5,11.5,100,0.00,CLR,,0.00,0.0,WeatherDisplay:10.37,2013-03-06 03:33:00,
2013-03-06 03:38:00,39.6,39.6,29.66,North,359,8.1,8.1,100,0.00,,,0.00,0.0,WeatherDisplay:10.37,2013-03-06 03:38:00,
2013-03-06 03:43:00,39.6,39.6,29.66,SSE,151,11.5,11.5,100,0.00,CLR,,0.00,0.0,WeatherDisplay:10.37,2013-03-06 03:43:00,
2013-03-06 03:48:00,39.6,39.6,29.66,South,178,10.4,10.4,100,0.00,CLR,,0.00,0.0,WeatherDisplay:10.37,2013-03-06 03:48:00,
2013-03-06 03:53:00,39.6,39.6,29.65,SSW,192,6.9,6.9,100,0.00,CLR,,0.00,0.0,WeatherDisplay:10.37,2013-03-06 03:53:00,
2013-03-06 03:58:00,39.6,39.6,29.66,South,174,11.5,11.5,100,0.00,CLR,,0.00,0.0,WeatherDisplay:10.37,2013-03-06 03:58:00,
2013-03-06 04:04:00,39.6,39.6,29.66,SSE,157,9.2,9.2,100,0.00,CLR,,0.00,0.0,WeatherDisplay:10.37,2013-03-06 04:04:00,
2013-03-06 04:09:00,39.6,39.6,29.65,SSE,151,5.8,5.8,100,0.00,,,0.00,0.0,WeatherDisplay:10.37,2013-03-06 04:09:00,
2013-03-06 04:14:00,39.6,39.6,29.65,SE,126,6.0,6.0,100,0.00,,,0.00,0.0,WeatherDisplay:10.37,2013-03-06 04:14:00,
2013-03-06 04:19:00,39.6,39.6,29.65,SSE,164,6.9,6.9,100,0.00,,,0.00,0.0,WeatherDisplay:10.37,2013-03-06 04:19:00,
2013-03-06 04:24:00,39.6,39.6,29.66,South,174,5.8,5.8,100,0.00,,,0.00,0.0,WeatherDisplay:10.37,2013-03-06 04:24:00,
2013-03-06 04:29:00,39.6,39.6,29.66,SE,128,5.8,5.8,100,0.00,,,0.00,0.0,WeatherDisplay:10.37,2013-03-06 04:29:00,
2013-03-06 04:34:00,39.6,39.3,29.65,SE,140,5.8,5.8,99,0.00,,,0.00,0.0,WeatherDisplay:10.37,2013-03-06 04:34:00,
2013-03-06 04:39:00,39.5,39.2,29.65,SE,126,5.8,5.8,99,0.00,,,0.00,0.0,WeatherDisplay:10.37,2013-03-06 04:39:00,
2013-03-06 04:44:00,39.3,39.0,29.65,SSE,160,8.1,8.1,99,0.00,,,0.00,0.0,WeatherDisplay:10.37,2013-03-06 04:44:00,
2013-03-06 04:49:00,39.2,38.9,29.64,SSE,162,7.0,7.0,99,0.00,,,0.00,0.0,WeatherDisplay:10.37,2013-03-06 04:49:00,
2013-03-06 04:54:00,39.1,38.8,29.64,ESE,104,8.1,8.1,99,0.00,,,0.00,0.0,WeatherDisplay:10.37,2013-03-06 04:54:00,
2013-03-06 04:59:00,39.2,38.9,29.64,SSE,152,6.9,6.9,99,0.00,,,0.00,0.0,WeatherDisplay:10.37,2013-03-06 04:59:00,
2013-03-06 05:00:00,39.2,38.9,29.64,South,169,6.9,6.9,99,0.00,,,0.00,0.0,WeatherDisplay:10.37,2013-03-06 05:00:00,
2013-03-06 05:01:00,39.2,38.9,29.64,South,184,8.1,8.1,99,0.00,,,0.00,0.0,WeatherDisplay:10.37,2013-03-06 05:01:00,
2013-03-06 05:06:00,39.2,38.9,29.64,SE,126,11.5,11.5,99,0.00,,,0.00,0.0,WeatherDisplay:10.37,2013-03-06 05:06:00,
2013-03-06 05:11:00,39.2,38.9,29.64,South,169,9.2,9.2,99,0.00,,,0.00,0.0,WeatherDisplay:10.37,2013-03-06 05:11:00,
2013-03-06 05:16:00,39.3,39.3,29.65,SE,140,8.1,8.1,100,0.00,,,0.00,0.0,WeatherDisplay:10.37,2013-03-06 05:16:00,
2013-03-06 05:21:00,39.3,39.0,29.65,SSW,195,6.9,6.9,99,0.00,,,0.00,0.0,WeatherDisplay:10.37,2013-03-06 05:21:00,
2013-03-06 05:26:00,39.5,39.5,29.65,South,181,4.6,4.6,100,0.00,,,0.00,0.0,WeatherDisplay:10.37,2013-03-06 05:26:00,
2013-03-06 05:31:00,39.5,39.5,29.65,SSE,152,8.1,8.1,100,0.00,,,0.00,0.0,WeatherDisplay:10.37,2013-03-06 05:31:00,
2013-03-06 05:37:00,39.6,39.3,29.65,SSE,147,3.5,3.5,99,0.00,,,0.00,0.0,WeatherDisplay:10.37,2013-03-06 05:37:00,
2013-03-06 05:42:00,39.6,39.3,29.65,SE,141,5.8,5.8,99,0.00,,,0.00,0.0,WeatherDisplay:10.37,2013-03-06 05:42:00,
2013-03-06 05:47:00,39.6,39.3,29.65,SE,138,8.1,8.1,99,0.00,,,0.00,0.0,WeatherDisplay:10.37,2013-03-06 05:47:00,
2013-03-06 05:52:00,39.6,39.3,29.65,East,93,5.8,5.8,99,0.00,,,0.00,0.0,WeatherDisplay:10.37,2013-03-06 05:52:00,
2013-03-06 05:57:00,39.6,39.3,29.65,SE,124,10.4,10.4,99,0.00,,,0.00,0.0,WeatherDisplay:10.37,2013-03-06 05:57:00,
2013-03-06 06:02:00,39.8,39.5,29.65,ESE,106,10.4,10.4,99,0.00,,,0.00,0.0,WeatherDisplay:10.37,2013-03-06 06:02:00,
2013-03-06 06:08:00,39.8,39.5,29.65,ESE,120,4.6,4.6,99,0.00,,,0.00,0.0,WeatherDisplay:10.37,2013-03-06 06:08:00,
2013-03-06 06:13:00,39.8,39.5,29.65,SE,136,11.5,11.5,99,0.00,,,0.00,0.0,WeatherDisplay:10.37,2013-03-06 06:13:00,
2013-03-06 06:18:00,39.9,39.6,29.65,SSE,155,11.5,11.5,99,0.00,,,0.00,0.0,WeatherDisplay:10.37,2013-03-06 06:18:00,
2013-03-06 06:23:00,39.9,39.6,29.65,SSE,154,10.4,10.4,99,0.00,,,0.00,0.0,WeatherDisplay:10.37,2013-03-06 06:23:00,
2013-03-06 06:28:00,39.9,39.6,29.66,South,174,6.9,6.9,99,0.00,OVC,,0.00,0.0,WeatherDisplay:10.37,2013-03-06 06:28:00,
2013-03-06 06:33:00,39.9,39.6,29.66,SSW,195,10.4,10.4,99,0.00,OVC,,0.00,0.0,WeatherDisplay:10.37,2013-03-06 06:33:00,
2013-03-06 06:38:00,39.9,39.6,29.66,SSE,157,10.4,10.4,99,0.00,OVC,,0.00,0.0,WeatherDisplay:10.37,2013-03-06 06:38:00,
2013-03-06 06:43:00,39.9,39.6,29.66,North,356,6.9,6.9,99,0.00,OVC,,0.00,0.0,WeatherDisplay:10.37,2013-03-06 06:43:00,
2013-03-06 06:48:00,40.1,39.8,29.66,SSE,150,10.4,10.4,99,0.00,OVC,,0.00,0.0,WeatherDisplay:10.37,2013-03-06 06:48:00,
2013-03-06 06:53:00,40.1,39.8,29.66,SSE,151,6.0,6.0,99,0.00,OVC,,0.00,5.0,WeatherDisplay:10.37,2013-03-06 06:53:00,
2013-03-06 06:58:00,39.9,39.6,29.66,SSE,167,11.5,11.5,99,0.00,OVC,,0.00,0.0,WeatherDisplay:10.37,2013-03-06 06:58:00,
2013-03-06 07:03:00,40.1,39.8,29.66,SE,130,11.5,11.5,99,0.00,OVC,,0.00,0.0,WeatherDisplay:10.37,2013-03-06 07:03:00,
2013-03-06 07:08:00,40.1,39.8,29.66,SE,140,6.9,6.9,99,0.00,OVC,,0.00,5.0,WeatherDisplay:10.37,2013-03-06 07:08:00,
2013-03-06 07:14:00,40.1,39.8,29.66,SSE,161,6.0,6.0,99,0.00,SCT,,0.00,7.0,WeatherDisplay:10.37,2013-03-06 07:14:00,
2013-03-06 07:19:00,40.1,39.8,29.66,SE,143,11.5,11.5,99,0.00,BKN,,0.00,9.0,WeatherDisplay:10.37,2013-03-06 07:19:00,
2013-03-06 07:24:00,40.1,39.8,29.66,SSE,150,13.8,13.8,99,0.00,BKN,,0.00,11.0,WeatherDisplay:10.37,2013-03-06 07:24:00,
2013-03-06 07:29:00,40.1,39.8,29.66,SSE,157,11.0,11.0,99,0.00,OVC,,0.00,12.0,WeatherDisplay:10.37,2013-03-06 07:29:00,
2013-03-06 07:34:00,40.1,39.8,29.66,SE,145,8.1,8.1,99,0.00,OVC,,0.00,14.0,WeatherDisplay:10.37,2013-03-06 07:34:00,
2013-03-06 07:40:00,40.2,39.9,29.67,South,172,8.1,8.1,99,0.00,OVC,,0.00,18.0,WeatherDisplay:10.37,2013-03-06 07:40:00,
2013-03-06 07:45:00,40.2,39.9,29.67,ESE,121,8.1,8.1,99,0.00,OVC,,0.00,21.0,WeatherDisplay:10.37,2013-03-06 07:45:00,
2013-03-06 07:50:00,40.2,40.2,29.67,SE,137,6.9,6.9,100,0.00,OVC,,0.00,21.0,WeatherDisplay:10.37,2013-03-06 07:50:00,
2013-03-06 07:55:00,40.2,40.2,29.67,SSE,168,5.8,5.8,100,0.00,OVC,,0.00,25.0,WeatherDisplay:10.37,2013-03-06 07:55:00,
2013-03-06 08:00:00,40.3,40.3,29.67,SSE,158,11.5,11.5,100,0.00,OVC,,0.00,26.0,WeatherDisplay:10.37,2013-03-06 08:00:00,
2013-03-06 08:05:00,40.3,40.3,29.67,South,169,5.8,5.8,100,0.00,OVC,,0.00,26.0,WeatherDisplay:10.37,2013-03-06 08:05:00,
2013-03-06 08:10:00,40.5,40.5,29.67,SE,138,12.7,12.7,100,0.00,OVC,,0.00,26.0,WeatherDisplay:10.37,2013-03-06 08:10:00,
2013-03-06 08:15:00,40.5,40.2,29.67,SSE,154,10.4,10.4,99,0.00,OVC,,0.00,25.0,WeatherDisplay:10.37,2013-03-06 08:15:00,
2013-03-06 08:20:00,40.5,40.2,29.67,SSE,152,12.7,12.7,99,0.00,OVC,,0.00,18.0,WeatherDisplay:10.37,2013-03-06 08:20:00,
2013-03-06 08:26:00,40.5,40.2,29.68,SE,143,6.9,6.9,99,0.00,OVC,,0.00,16.0,WeatherDisplay:10.37,2013-03-06 08:26:00,
2013-03-06 08:31:00,40.6,40.3,29.68,South,185,11.5,11.5,99,0.00,OVC,,0.00,16.0,WeatherDisplay:10.37,2013-03-06 08:31:00,
2013-03-06 08:36:00,40.6,40.3,29.68,SE,140,13.8,13.8,99,0.00,OVC,,0.00,18.0,WeatherDisplay:10.37,2013-03-06 08:36:00,
2013-03-06 08:41:00,40.6,40.3,29.68,SSW,199,11.5,11.5,99,0.00,OVC,,0.00,19.0,WeatherDisplay:10.37,2013-03-06 08:41:00,
2013-03-06 08:46:00,40.5,40.2,29.68,SE,133,12.7,12.7,99,0.00,OVC,,0.00,23.0,WeatherDisplay:10.37,2013-03-06 08:46:00,
2013-03-06 08:51:00,40.5,40.5,29.68,SE,143,12.0,12.0,100,0.00,OVC,,0.00,28.0,WeatherDisplay:10.37,2013-03-06 08:51:00,
2013-03-06 08:57:00,40.5,40.5,29.68,SE,144,12.7,12.7,100,0.00,OVC,,0.00,35.0,WeatherDisplay:10.37,2013-03-06 08:57:00,
2013-03-06 09:02:00,40.5,40.5,29.68,SSE,154,16.1,16.1,100,0.00,OVC,,0.00,37.0,WeatherDisplay:10.37,2013-03-06 09:02:00,
2013-03-06 09:07:00,40.5,40.5,29.68,SE,137,15.0,15.0,100,0.00,OVC,,0.00,46.0,WeatherDisplay:10.37,2013-03-06 09:07:00,
2013-03-06 09:13:00,40.5,40.5,29.68,North,352,12.7,12.7,100,0.00,OVC,,0.00,44.0,WeatherDisplay:10.37,2013-03-06 09:13:00,
2013-03-06 09:18:00,40.5,40.5,29.68,SSW,193,12.7,12.7,100,0.00,OVC,,0.00,42.0,WeatherDisplay:10.37,2013-03-06 09:18:00,
2013-03-06 09:23:00,40.5,40.5,29.68,North,356,17.3,17.3,100,0.00,OVC,,0.00,51.0,WeatherDisplay:10.37,2013-03-06 09:23:00,
2013-03-06 09:28:00,40.5,40.5,29.68,SE,140,11.5,11.5,100,0.00,OVC,,0.00,51.0,WeatherDisplay:10.37,2013-03-06 09:28:00,
2013-03-06 09:33:00,40.5,40.5,29.68,SE,130,11.5,11.5,100,0.00,OVC,,0.00,62.0,WeatherDisplay:10.37,2013-03-06 09:33:00,
2013-03-06 09:38:00,40.5,40.5,29.68,South,171,11.5,11.5,100,0.00,OVC,,0.00,55.0,WeatherDisplay:10.37,2013-03-06 09:38:00,
2013-03-06 09:43:00,40.6,40.6,29.68,SSE,154,17.3,17.3,100,0.00,OVC,,0.00,72.0,WeatherDisplay:10.37,2013-03-06 09:43:00,
2013-03-06 09:48:00,40.6,40.6,29.68,SSE,157,12.7,12.7,100,0.00,OVC,,0.00,79.0,WeatherDisplay:10.37,2013-03-06 09:48:00,
2013-03-06 09:53:00,40.6,40.6,29.69,SSE,165,11.5,11.5,100,0.00,OVC,,0.00,63.0,WeatherDisplay:10.37,2013-03-06 09:53:00,
2013-03-06 09:58:00,40.8,40.8,29.69,SE,141,13.8,13.8,100,0.00,OVC,,0.00,72.0,WeatherDisplay:10.37,2013-03-06 09:58:00,
2013-03-06 10:04:00,40.8,40.5,29.69,SSE,158,15.0,15.0,99,0.00,OVC,,0.00,72.0,WeatherDisplay:10.37,2013-03-06 10:04:00,
2013-03-06 10:09:00,40.9,40.6,29.69,SSE,168,11.5,11.5,99,0.00,OVC,,0.00,55.0,WeatherDisplay:10.37,2013-03-06 10:09:00,
2013-03-06 10:14:00,40.9,40.6,29.69,SSE,160,12.7,12.7,99,0.00,OVC,,0.00,51.0,WeatherDisplay:10.37,2013-03-06 10:14:00,
2013-03-06 10:19:00,40.9,40.6,29.69,SSE,161,11.5,11.5,99,0.00,OVC,,0.00,53.0,WeatherDisplay:10.37,2013-03-06 10:19:00,
2013-03-06 10:24:00,40.8,40.5,29.69,SSE,150,11.5,11.5,99,0.00,OVC,,0.00,51.0,WeatherDisplay:10.37,2013-03-06 10:24:00,
2013-03-06 10:29:00,40.8,40.5,29.69,South,169,11.5,11.5,99,0.00,OVC,,0.00,63.0,WeatherDisplay:10.37,2013-03-06 10:29:00,
2013-03-06 10:34:00,40.8,40.5,29.69,SSE,154,16.1,16.1,99,0.00,OVC,,0.00,86.0,WeatherDisplay:10.37,2013-03-06 10:34:00,
2013-03-06 10:40:00,40.9,40.6,29.69,SE,138,13.8,13.8,99,0.00,OVC,,0.00,51.0,WeatherDisplay:10.37,2013-03-06 10:40:00,
2013-03-06 10:45:00,40.9,40.6,29.69,SSE,155,11.5,11.5,99,0.00,OVC,,0.00,84.0,WeatherDisplay:10.37,2013-03-06 10:45:00,
2013-03-06 10:50:00,40.9,40.6,29.69,SSE,164,12.0,12.0,99,0.00,OVC,,0.00,134.0,WeatherDisplay:10.37,2013-03-06 10:50:00,
2013-03-06 10:55:00,41.2,40.9,29.69,SSW,195,11.5,11.5,99,0.00,OVC,,0.00,99.0,WeatherDisplay:10.37,2013-03-06 10:55:00,
2013-03-06 11:00:00,41.3,40.8,29.69,SSE,158,11.0,11.0,98,0.00,OVC,,0.00,113.0,WeatherDisplay:10.37,2013-03-06 11:00:00,
2013-03-06 11:05:00,41.6,41.1,29.69,SSE,147,11.5,11.5,98,0.00,OVC,,0.00,93.0,WeatherDisplay:10.37,2013-03-06 11:05:00,
2013-03-06 11:11:00,41.8,41.3,29.69,SSE,152,11.5,11.5,98,0.00,OVC,,0.00,86.0,WeatherDisplay:10.37,2013-03-06 11:11:00,
2013-03-06 11:16:00,41.9,41.4,29.69,SE,143,10.4,10.4,98,0.00,OVC,,0.00,88.0,WeatherDisplay:10.37,2013-03-06 11:16:00,
2013-03-06 11:21:00,41.9,41.4,29.69,East,89,8.1,8.1,98,0.00,OVC,,0.00,83.0,WeatherDisplay:10.37,2013-03-06 11:21:00,
2013-03-06 11:26:00,42.1,41.6,29.69,SE,143,11.5,11.5,98,0.00,OVC,,0.00,69.0,WeatherDisplay:10.37,2013-03-06 11:26:00,
2013-03-06 11:31:00,42.1,41.6,29.69,SSE,150,6.9,6.9,98,0.00,OVC,,0.00,65.0,WeatherDisplay:10.37,2013-03-06 11:31:00,
2013-03-06 11:36:00,42.2,41.7,29.69,ESE,123,6.9,6.9,98,0.00,OVC,,0.00,58.0,WeatherDisplay:10.37,2013-03-06 11:36:00,
2013-03-06 11:41:00,42.2,41.7,29.69,ESE,107,12.0,12.0,98,0.00,OVC,,0.00,58.0,WeatherDisplay:10.37,2013-03-06 11:41:00,
2013-03-06 11:47:00,42.2,41.7,29.69,ESE,120,11.5,11.5,98,0.00,OVC,,0.00,69.0,WeatherDisplay:10.37,2013-03-06 11:47:00,
2013-03-06 11:52:00,42.3,41.8,29.69,East,88,11.5,11.5,98,0.00,OVC,,0.00,74.0,WeatherDisplay:10.37,2013-03-06 11:52:00,
2013-03-06 11:57:00,42.3,41.8,29.69,SE,128,12.7,12.7,98,0.00,OVC,,0.00,70.0,WeatherDisplay:10.37,2013-03-06 11:57:00,
2013-03-06 12:02:00,42.5,42.0,29.69,SE,138,11.5,11.5,98,0.00,OVC,,0.00,60.0,WeatherDisplay:10.37,2013-03-06 12:02:00,
2013-03-06 12:07:00,42.5,42.0,29.69,NNW,328,11.0,11.0,98,0.00,OVC,,0.00,62.0,WeatherDisplay:10.37,2013-03-06 12:07:00,
2013-03-06 12:12:00,42.5,42.0,29.69,ESE,121,11.5,11.5,98,0.00,OVC,,0.00,63.0,WeatherDisplay:10.37,2013-03-06 12:12:00,
2013-03-06 12:18:00,42.5,42.2,29.69,East,82,8.1,8.1,99,0.00,OVC,,0.00,67.0,WeatherDisplay:10.37,2013-03-06 12:18:00,
2013-03-06 12:23:00,42.5,42.2,29.69,SE,141,5.0,5.0,99,0.00,OVC,,0.00,76.0,WeatherDisplay:10.37,2013-03-06 12:23:00,
2013-03-06 12:28:00,42.6,42.3,29.68,SSE,154,10.4,10.4,99,0.00,OVC,,0.00,58.0,WeatherDisplay:10.37,2013-03-06 12:28:00,
2013-03-06 12:33:00,42.6,42.3,29.68,SE,131,8.1,8.1,99,0.00,OVC,,0.00,55.0,WeatherDisplay:10.37,2013-03-06 12:33:00,
2013-03-06 12:38:00,42.6,42.3,29.68,SSW,198,8.1,8.1,99,0.00,OVC,,0.00,51.0,WeatherDisplay:10.37,2013-03-06 12:38:00,
2013-03-06 12:43:00,42.6,42.3,29.68,ESE,107,5.8,5.8,99,0.00,OVC,,0.00,49.0,WeatherDisplay:10.37,2013-03-06 12:43:00,
2013-03-06 12:49:00,42.6,42.3,29.68,South,189,8.1,8.1,99,0.00,OVC,,0.00,65.0,WeatherDisplay:10.37,2013-03-06 12:49:00,
2013-03-06 12:54:00,42.6,42.3,29.68,SE,134,11.5,11.5,99,0.00,OVC,,0.00,62.0,WeatherDisplay:10.37,2013-03-06 12:54:00,
2013-03-06 12:59:00,42.6,42.6,29.68,ESE,117,11.5,11.5,100,0.00,OVC,,0.00,128.0,WeatherDisplay:10.37,2013-03-06 12:59:00,
2013-03-06 13:04:00,42.9,42.9,29.67,ESE,107,8.1,8.1,100,0.00,OVC,,0.00,148.0,WeatherDisplay:10.37,2013-03-06 13:04:00,
2013-03-06 13:09:00,43.1,42.8,29.67,SSE,150,11.5,11.5,99,0.00,OVC,,0.00,95.0,WeatherDisplay:10.37,2013-03-06 13:09:00,
2013-03-06 13:15:00,43.1,42.8,29.67,SSE,160,12.7,12.7,99,0.00,OVC,,0.00,91.0,WeatherDisplay:10.37,2013-03-06 13:15:00,
2013-03-06 13:20:00,43.1,42.8,29.67,South,178,12.7,12.7,99,0.00,OVC,,0.00,70.0,WeatherDisplay:10.37,2013-03-06 13:20:00,
2013-03-06 13:25:00,42.9,42.6,29.67,South,176,11.5,11.5,99,0.00,OVC,,0.00,86.0,WeatherDisplay:10.37,2013-03-06 13:25:00,
2013-03-06 13:30:00,42.9,42.6,29.67,SSE,160,13.8,13.8,99,0.00,OVC,,0.00,65.0,WeatherDisplay:10.37,2013-03-06 13:30:00,
2013-03-06 13:35:00,42.9,42.6,29.66,SSE,167,8.1,8.1,99,0.00,OVC,,0.00,63.0,WeatherDisplay:10.37,2013-03-06 13:35:00,
2013-03-06 13:41:00,42.9,42.6,29.66,South,172,11.5,11.5,99,0.00,OVC,,0.00,74.0,WeatherDisplay:10.37,2013-03-06 13:41:00,
2013-03-06 13:46:00,42.9,42.6,29.66,SSE,160,10.4,10.4,99,0.00,OVC,,0.00,60.0,WeatherDisplay:10.37,2013-03-06 13:46:00,
2013-03-06 13:51:00,42.8,42.5,29.66,East,95,11.5,11.5,99,0.00,OVC,,0.00,51.0,WeatherDisplay:10.37,2013-03-06 13:51:00,
2013-03-06 13:56:00,42.8,42.5,29.66,SSE,147,6.9,6.9,99,0.00,OVC,,0.00,51.0,WeatherDisplay:10.37,2013-03-06 13:56:00,
2013-03-06 14:01:00,42.6,42.6,29.66,SSE,160,11.5,11.5,100,0.00,OVC,,0.00,55.0,WeatherDisplay:10.37,2013-03-06 14:01:00,
2013-03-06 14:07:00,42.6,42.6,29.66,SE,134,9.0,9.0,100,0.00,OVC,,0.00,55.0,WeatherDisplay:10.37,2013-03-06 14:07:00,
2013-03-06 14:12:00,42.6,42.6,29.66,SSE,167,11.5,11.5,100,0.00,OVC,,0.00,65.0,WeatherDisplay:10.37,2013-03-06 14:12:00,
2013-03-06 14:17:00,42.6,42.6,29.66,SE,144,8.1,8.1,100,0.00,OVC,,0.00,58.0,WeatherDisplay:10.37,2013-03-06 14:17:00,
2013-03-06 14:22:00,42.6,42.6,29.66,ESE,123,8.1,8.1,100,0.00,OVC,,0.00,60.0,WeatherDisplay:10.37,2013-03-06 14:22:00,
2013-03-06 14:27:00,42.6,42.6,29.66,SSE,168,9.2,9.2,100,0.00,OVC,,0.00,55.0,WeatherDisplay:10.37,2013-03-06 14:27:00,
2013-03-06 14:32:00,42.6,42.6,29.66,SE,138,11.5,11.5,100,0.00,OVC,,0.00,62.0,WeatherDisplay:10.37,2013-03-06 14:32:00,
2013-03-06 14:37:00,42.8,42.8,29.66,SSE,152,11.5,11.5,100,0.00,OVC,,0.00,53.0,WeatherDisplay:10.37,2013-03-06 14:37:00,
2013-03-06 14:43:00,42.8,42.8,29.65,SE,137,8.1,8.1,100,0.00,OVC,,0.00,48.0,WeatherDisplay:10.37,2013-03-06 14:43:00,
2013-03-06 14:48:00,42.6,42.6,29.66,ESE,113,11.5,11.5,100,0.00,OVC,,0.00,46.0,WeatherDisplay:10.37,2013-03-06 14:48:00,
2013-03-06 14:53:00,42.6,42.6,29.65,SSE,158,10.4,10.4,100,0.00,OVC,,0.00,49.0,WeatherDisplay:10.37,2013-03-06 14:53:00,
2013-03-06 14:58:00,42.6,42.6,29.65,SSW,199,11.5,11.5,100,0.00,OVC,,0.00,46.0,WeatherDisplay:10.37,2013-03-06 14:58:00,
2013-03-06 15:03:00,42.6,42.6,29.65,SE,130,11.5,11.5,100,0.00,OVC,,0.00,42.0,WeatherDisplay:10.37,2013-03-06 15:03:00,
2013-03-06 15:09:00,42.8,42.8,29.65,SSE,161,17.3,17.3,100,0.00,OVC,,0.00,46.0,WeatherDisplay:10.37,2013-03-06 15:09:00,
2013-03-06 15:14:00,42.8,42.5,29.65,South,172,5.8,5.8,99,0.00,OVC,,0.00,46.0,WeatherDisplay:10.37,2013-03-06 15:14:00,
2013-03-06 15:19:00,42.8,42.5,29.65,SE,144,10.4,10.4,99,0.00,OVC,,0.00,44.0,WeatherDisplay:10.37,2013-03-06 15:19:00,
2013-03-06 15:24:00,42.8,42.5,29.65,SSW,195,11.5,11.5,99,0.00,OVC,,0.00,44.0,WeatherDisplay:10.37,2013-03-06 15:24:00,
2013-03-06 15:29:00,42.8,42.5,29.65,SW,227,11.5,11.5,99,0.00,OVC,,0.00,51.0,WeatherDisplay:10.37,2013-03-06 15:29:00,
2013-03-06 15:34:00,42.8,42.5,29.65,WSW,240,8.1,8.1,99,0.00,OVC,,0.00,56.0,WeatherDisplay:10.37,2013-03-06 15:34:00,
2013-03-06 15:40:00,42.9,42.4,29.64,SSE,161,11.5,11.5,98,0.00,OVC,,0.00,60.0,WeatherDisplay:10.37,2013-03-06 15:40:00,
2013-03-06 15:45:00,42.9,42.4,29.65,SSE,163,5.0,14.0,98,0.00,OVC,,0.00,51.0,WeatherDisplay:10.37,2013-03-06 15:45:00,
2013-03-06 15:50:00,42.9,42.1,29.64,SW,226,12.7,12.7,97,0.00,OVC,,0.00,48.0,WeatherDisplay:10.37,2013-03-06 15:50:00,
2013-03-06 15:55:00,43.1,42.3,29.64,North,0,6.9,6.9,97,0.00,OVC,,0.00,51.0,WeatherDisplay:10.37,2013-03-06 15:55:00,
2013-03-06 16:00:00,43.1,42.3,29.64,SW,220,12.0,12.0,97,0.00,OVC,,0.00,49.0,WeatherDisplay:10.37,2013-03-06 16:00:00,
2013-03-06 16:05:00,43.1,42.3,29.65,SSW,213,8.1,8.1,97,0.00,OVC,,0.00,42.0,WeatherDisplay:10.37,2013-03-06 16:05:00,
2013-03-06 16:10:00,43.1,42.3,29.64,SW,230,11.5,11.5,97,0.00,OVC,,0.00,37.0,WeatherDisplay:10.37,2013-03-06 16:10:00,
2013-03-06 16:16:00,43.1,42.3,29.64,South,171,11.5,11.5,97,0.00,OVC,,0.00,37.0,WeatherDisplay:10.37,2013-03-06 16:16:00,
2013-03-06 16:21:00,43.1,42.3,29.64,SSW,202,13.8,13.8,97,0.00,OVC,,0.00,35.0,WeatherDisplay:10.37,2013-03-06 16:21:00,
2013-03-06 16:26:00,43.1,42.0,29.64,SSW,206,12.7,12.7,96,0.00,OVC,,0.00,35.0,WeatherDisplay:10.37,2013-03-06 16:26:00,
2013-03-06 16:31:00,43.1,42.0,29.64,SSW,208,11.5,11.5,96,0.00,OVC,,0.00,30.0,WeatherDisplay:10.37,2013-03-06 16:31:00,
2013-03-06 16:36:00,43.1,42.0,29.64,WSW,248,11.5,11.5,96,0.00,OVC,,0.00,30.0,WeatherDisplay:10.37,2013-03-06 16:36:00,
2013-03-06 16:41:00,43.1,42.0,29.64,SSW,213,8.1,8.1,96,0.00,OVC,,0.00,30.0,WeatherDisplay:10.37,2013-03-06 16:41:00,
2013-03-06 16:46:00,43.1,42.3,29.64,SSW,200,13.8,13.8,97,0.00,OVC,,0.00,32.0,WeatherDisplay:10.37,2013-03-06 16:46:00,
2013-03-06 16:51:00,43.1,42.3,29.64,SSW,205,9.2,9.2,97,0.00,OVC,,0.00,28.0,WeatherDisplay:10.37,2013-03-06 16:51:00,
2013-03-06 16:57:00,43.1,42.3,29.64,South,185,12.7,12.7,97,0.00,OVC,,0.00,25.0,WeatherDisplay:10.37,2013-03-06 16:57:00,
2013-03-06 17:02:00,43.1,42.3,29.64,SW,223,12.7,12.7,97,0.00,OVC,,0.00,25.0,WeatherDisplay:10.37,2013-03-06 17:02:00,
2013-03-06 17:07:00,43.1,42.3,29.64,NNW,335,11.5,11.5,97,0.00,OVC,,0.00,21.0,WeatherDisplay:10.37,2013-03-06 17:07:00,
2013-03-06 17:12:00,43.1,42.3,29.64,WSW,250,12.7,12.7,97,0.00,OVC,,0.00,21.0,WeatherDisplay:10.37,2013-03-06 17:12:00,
2013-03-06 17:17:00,43.1,42.3,29.64,West,272,18.4,18.4,97,0.00,BKN,,0.00,18.0,WeatherDisplay:10.37,2013-03-06 17:17:00,
2013-03-06 17:22:00,43.1,42.3,29.65,North,354,12.7,12.7,97,0.00,OVC,,0.00,14.0,WeatherDisplay:10.37,2013-03-06 17:22:00,
2013-03-06 17:28:00,43.1,42.3,29.65,WSW,237,11.5,11.5,97,0.00,OVC,,0.00,12.0,WeatherDisplay:10.37,2013-03-06 17:28:00,
2013-03-06 17:33:00,42.9,42.1,29.65,WSW,256,6.9,6.9,97,0.00,BKN,,0.00,12.0,WeatherDisplay:10.37,2013-03-06 17:33:00,
2013-03-06 17:38:00,42.9,42.1,29.65,SSW,192,12.7,12.7,97,0.00,OVC,,0.00,7.0,WeatherDisplay:10.37,2013-03-06 17:38:00,
2013-03-06 17:43:00,42.9,42.1,29.65,SSW,200,11.5,11.5,97,0.00,SCT,,0.00,7.0,WeatherDisplay:10.37,2013-03-06 17:43:00,
2013-03-06 17:48:00,42.9,42.1,29.65,SSE,147,9.2,9.2,97,0.00,CLR,,0.00,5.0,WeatherDisplay:10.37,2013-03-06 17:48:00,
2013-03-06 17:53:00,42.9,42.1,29.65,SSW,192,11.5,11.5,97,0.00,OVC,,0.00,5.0,WeatherDisplay:10.37,2013-03-06 17:53:00,
2013-03-06 17:58:00,42.8,42.0,29.65,SW,236,10.0,10.0,97,0.00,OVC,,0.00,0.0,WeatherDisplay:10.37,2013-03-06 17:58:00,
2013-03-06 18:04:00,42.8,42.0,29.65,SSW,213,12.7,12.7,97,0.00,OVC,,0.00,0.0,WeatherDisplay:10.37,2013-03-06 18:04:00,
2013-03-06 18:09:00,42.8,42.0,29.65,SSW,200,10.4,10.4,97,0.00,OVC,,0.00,0.0,WeatherDisplay:10.37,2013-03-06 18:09:00,
2013-03-06 18:14:00,42.8,42.0,29.65,South,191,11.5,11.5,97,0.00,OVC,,0.00,0.0,WeatherDisplay:10.37,2013-03-06 18:14:00,
2013-03-06 18:19:00,42.8,42.3,29.65,South,171,13.8,13.8,98,0.00,OVC,,0.00,0.0,WeatherDisplay:10.37,2013-03-06 18:19:00,
2013-03-06 18:24:00,42.8,42.3,29.65,SSE,148,11.5,11.5,98,0.00,OVC,,0.00,0.0,WeatherDisplay:10.37,2013-03-06 18:24:00,
2013-03-06 18:29:00,42.8,42.3,29.65,SW,223,11.5,11.5,98,0.00,OVC,,0.00,0.0,WeatherDisplay:10.37,2013-03-06 18:29:00,
2013-03-06 18:34:00,42.8,42.3,29.65,WSW,253,11.5,11.5,98,0.00,CLR,,0.00,0.0,WeatherDisplay:10.37,2013-03-06 18:34:00,
2013-03-06 18:39:00,42.8,42.3,29.66,SE,127,11.5,11.5,98,0.00,CLR,,0.00,0.0,WeatherDisplay:10.37,2013-03-06 18:39:00,
2013-03-06 18:44:00,42.6,42.1,29.66,SSE,162,8.1,8.1,98,0.00,CLR,,0.00,0.0,WeatherDisplay:10.37,2013-03-06 18:44:00,
2013-03-06 18:49:00,42.6,42.1,29.66,South,181,12.7,12.7,98,0.00,CLR,,0.00,0.0,WeatherDisplay:10.37,2013-03-06 18:49:00,
2013-03-06 18:55:00,42.6,42.1,29.66,NNW,343,5.8,5.8,98,0.00,CLR,,0.00,0.0,WeatherDisplay:10.37,2013-03-06 18:55:00,
2013-03-06 19:00:00,42.6,42.1,29.66,SSE,164,13.0,13.0,98,0.00,CLR,,0.00,0.0,WeatherDisplay:10.37,2013-03-06 19:00:00,
2013-03-06 19:05:00,42.6,42.3,29.66,SSE,161,13.0,13.0,99,0.00,,,0.00,0.0,WeatherDisplay:10.37,2013-03-06 19:05:00,
2013-03-06 19:10:00,42.6,42.3,29.66,North,0,13.8,13.8,99,0.00,CLR,,0.00,0.0,WeatherDisplay:10.37,2013-03-06 19:10:00,
2013-03-06 19:15:00,42.6,42.3,29.66,SSE,151,13.8,13.8,99,0.00,CLR,,0.00,0.0,WeatherDisplay:10.37,2013-03-06 19:15:00,
2013-03-06 19:20:00,42.6,42.3,29.66,SSW,200,11.5,11.5,99,0.00,CLR,,0.00,0.0,WeatherDisplay:10.37,2013-03-06 19:20:00,
2013-03-06 19:25:00,42.5,42.2,29.66,SSE,161,10.4,10.4,99,0.00,CLR,,0.00,0.0,WeatherDisplay:10.37,2013-03-06 19:25:00,
2013-03-06 19:31:00,42.5,42.2,29.66,WSW,240,11.5,11.5,99,0.00,CLR,,0.00,0.0,WeatherDisplay:10.37,2013-03-06 19:31:00,
2013-03-06 19:36:00,42.5,42.2,29.66,SSE,147,11.5,11.5,99,0.00,CLR,,0.00,0.0,WeatherDisplay:10.37,2013-03-06 19:36:00,
2013-03-06 19:41:00,42.5,42.2,29.66,SE,140,5.8,5.8,99,0.00,CLR,,0.00,0.0,WeatherDisplay:10.37,2013-03-06 19:41:00,
2013-03-06 19:46:00,42.3,42.0,29.65,NNW,344,11.5,11.5,99,0.00,CLR,,0.00,0.0,WeatherDisplay:10.37,2013-03-06 19:46:00,
2013-03-06 19:51:00,42.3,42.0,29.65,South,186,12.7,12.7,99,0.00,CLR,,0.00,0.0,WeatherDisplay:10.37,2013-03-06 19:51:00,
2013-03-06 19:56:00,42.3,42.0,29.66,SE,143,11.5,11.5,99,0.00,CLR,,0.00,0.0,WeatherDisplay:10.37,2013-03-06 19:56:00,
2013-03-06 20:01:00,42.3,42.0,29.66,SSE,154,11.5,11.5,99,0.00,CLR,,0.00,0.0,WeatherDisplay:10.37,2013-03-06 20:01:00,
2013-03-06 20:07:00,42.2,41.9,29.65,SSW,199,11.5,11.5,99,0.00,CLR,,0.00,0.0,WeatherDisplay:10.37,2013-03-06 20:07:00,
2013-03-06 20:12:00,42.2,41.9,29.65,ESE,123,13.0,13.0,99,0.00,CLR,,0.00,0.0,WeatherDisplay:10.37,2013-03-06 20:12:00,
2013-03-06 20:17:00,42.2,42.2,29.65,SE,124,6.0,6.0,100,0.00,CLR,,0.00,0.0,WeatherDisplay:10.37,2013-03-06 20:17:00,
2013-03-06 20:22:00,42.2,42.2,29.65,SE,137,8.1,8.1,100,0.00,CLR,,0.00,0.0,WeatherDisplay:10.37,2013-03-06 20:22:00,
2013-03-06 20:27:00,42.2,42.2,29.65,SE,145,8.1,8.1,100,0.00,CLR,,0.00,0.0,WeatherDisplay:10.37,2013-03-06 20:27:00,
2013-03-06 20:32:00,42.2,42.2,29.65,ESE,116,8.1,8.1,100,0.00,CLR,,0.00,0.0,WeatherDisplay:10.37,2013-03-06 20:32:00,
2013-03-06 20:38:00,42.2,42.2,29.65,South,175,11.5,11.5,100,0.00,,,0.00,0.0,WeatherDisplay:10.37,2013-03-06 20:38:00,
2013-03-06 20:43:00,42.1,42.1,29.65,SSE,167,9.2,9.2,100,0.00,,,0.00,0.0,WeatherDisplay:10.37,2013-03-06 20:43:00,
2013-03-06 20:48:00,42.1,42.1,29.65,ESE,119,10.4,10.4,100,0.00,,,0.00,0.0,WeatherDisplay:10.37,2013-03-06 20:48:00,
2013-03-06 20:53:00,42.1,42.1,29.65,South,169,9.2,9.2,100,0.00,CLR,,0.00,0.0,WeatherDisplay:10.37,2013-03-06 20:53:00,
2013-03-06 20:58:00,42.1,42.1,29.65,SSE,162,8.1,8.1,100,0.00,,,0.00,0.0,WeatherDisplay:10.37,2013-03-06 20:58:00,
2013-03-06 21:03:00,41.9,41.9,29.65,SSW,198,6.9,6.9,100,0.00,,,0.00,0.0,WeatherDisplay:10.37,2013-03-06 21:03:00,
2013-03-06 21:09:00,41.9,41.9,29.65,SSE,168,6.9,6.9,100,0.01,RA,,0.01,0.0,WeatherDisplay:10.37,2013-03-06 21:09:00,
2013-03-06 21:14:00,41.9,41.9,29.65,SSE,155,9.0,9.0,100,0.01,RA,,0.01,0.0,WeatherDisplay:10.37,2013-03-06 21:14:00,
2013-03-06 21:19:00,41.9,41.9,29.65,South,189,13.8,13.8,100,0.01,CLR,,0.01,0.0,WeatherDisplay:10.37,2013-03-06 21:19:00,
2013-03-06 21:24:00,41.8,41.8,29.65,SSW,200,6.9,6.9,100,0.01,CLR,,0.01,0.0,WeatherDisplay:10.37,2013-03-06 21:24:00,
2013-03-06 21:29:00,41.8,41.8,29.65,SSW,212,11.5,11.5,100,0.01,CLR,,0.01,0.0,WeatherDisplay:10.37,2013-03-06 21:29:00,
2013-03-06 21:35:00,41.8,41.8,29.64,SSE,148,6.9,6.9,100,0.01,CLR,,0.01,0.0,WeatherDisplay:10.37,2013-03-06 21:35:00,
2013-03-06 21:40:00,41.8,41.8,29.64,SSE,158,11.5,11.5,100,0.01,CLR,,0.01,0.0,WeatherDisplay:10.37,2013-03-06 21:40:00,
2013-03-06 21:45:00,41.8,41.8,29.64,SSE,154,5.0,12.0,100,0.00,CLR,,0.01,0.0,WeatherDisplay:10.37,2013-03-06 21:45:00,
2013-03-06 21:50:00,41.8,41.8,29.64,South,184,11.5,11.5,100,0.01,CLR,,0.01,0.0,WeatherDisplay:10.37,2013-03-06 21:50:00,
2013-03-06 21:55:00,41.8,41.8,29.64,ESE,117,9.2,9.2,100,0.01,CLR,,0.01,0.0,WeatherDisplay:10.37,2013-03-06 21:55:00,
2013-03-06 22:00:00,41.8,41.8,29.64,South,181,11.5,11.5,100,0.01,CLR,,0.01,0.0,WeatherDisplay:10.37,2013-03-06 22:00:00,
2013-03-06 22:06:00,41.8,41.8,29.64,SE,128,5.8,5.8,100,0.01,RA,,0.02,0.0,WeatherDisplay:10.37,2013-03-06 22:06:00,
2013-03-06 22:11:00,41.6,41.6,29.64,South,189,11.5,11.5,100,0.01,RA,,0.02,0.0,WeatherDisplay:10.37,2013-03-06 22:11:00,
2013-03-06 22:16:00,41.6,41.6,29.64,SSW,200,11.5,11.5,100,0.01,CLR,,0.02,0.0,WeatherDisplay:10.37,2013-03-06 22:16:00,
2013-03-06 22:21:00,41.6,41.6,29.64,SSW,202,10.0,10.0,100,0.01,CLR,,0.02,0.0,WeatherDisplay:10.37,2013-03-06 22:21:00,
2013-03-06 22:26:00,41.6,41.6,29.64,South,184,5.8,7.3,100,0.01,CLR,,0.02,0.0,WeatherDisplay:10.37,2013-03-06 22:26:00,
2013-03-06 22:31:00,41.6,41.6,29.64,ESE,114,11.5,11.5,100,0.01,CLR,,0.02,0.0,WeatherDisplay:10.37,2013-03-06 22:31:00,
2013-03-06 22:36:00,41.6,41.6,29.64,SSE,150,8.1,8.1,100,0.01,CLR,,0.02,0.0,WeatherDisplay:10.37,2013-03-06 22:36:00,
2013-03-06 22:42:00,41.5,41.5,29.64,NNW,343,11.5,11.5,100,0.01,CLR,,0.02,0.0,WeatherDisplay:10.37,2013-03-06 22:42:00,
2013-03-06 22:47:00,41.6,41.6,29.64,SSE,148,6.9,6.9,100,0.01,CLR,,0.02,0.0,WeatherDisplay:10.37,2013-03-06 22:47:00,
2013-03-06 22:52:00,41.6,41.6,29.64,SSE,151,10.4,10.4,100,0.02,RA,,0.03,0.0,WeatherDisplay:10.37,2013-03-06 22:52:00,
2013-03-06 22:57:00,41.6,41.6,29.63,South,191,7.0,7.0,100,0.02,RA,,0.03,0.0,WeatherDisplay:10.37,2013-03-06 22:57:00,
2013-03-06 23:02:00,41.6,41.6,29.63,SE,145,5.8,5.8,100,0.02,,,0.03,0.0,WeatherDisplay:10.37,2013-03-06 23:02:00,
2013-03-06 23:07:00,41.6,41.6,29.63,SW,216,8.1,8.1,100,0.01,CLR,,0.03,0.0,WeatherDisplay:10.37,2013-03-06 23:07:00,
2013-03-06 23:13:00,41.6,41.6,29.63,SSE,168,10.4,10.4,100,0.01,CLR,,0.03,0.0,WeatherDisplay:10.37,2013-03-06 23:13:00,
2013-03-06 23:18:00,41.6,41.6,29.63,SSW,203,11.5,11.5,100,0.01,CLR,,0.03,0.0,WeatherDisplay:10.37,2013-03-06 23:18:00,
2013-03-06 23:23:00,41.6,41.6,29.63,South,185,11.5,11.5,100,0.01,CLR,,0.03,0.0,WeatherDisplay:10.37,2013-03-06 23:23:00,
2013-03-06 23:28:00,41.6,41.6,29.62,SSW,206,6.0,6.0,100,0.01,CLR,,0.03,0.0,WeatherDisplay:10.37,2013-03-06 23:28:00,
2013-03-06 23:33:00,41.6,41.6,29.62,SSW,205,8.1,8.1,100,0.01,CLR,,0.03,0.0,WeatherDisplay:10.37,2013-03-06 23:33:00,
2013-03-06 23:38:00,41.6,41.6,29.62,SE,134,9.2,9.2,100,0.01,CLR,,0.03,0.0,WeatherDisplay:10.37,2013-03-06 23:38:00,
2013-03-06 23:44:00,41.6,41.6,29.62,SSW,199,11.5,11.5,100,0.01,CLR,,0.03,0.0,WeatherDisplay:10.37,2013-03-06 23:44:00,
2013-03-06 23:49:00,41.6,41.6,29.62,SSW,208,8.1,8.1,100,0.01,CLR,,0.03,0.0,WeatherDisplay:10.37,2013-03-06 23:49:00,
2013-03-06 23:54:00,41.6,41.6,29.62,SSE,164,12.7,12.7,100,0.01,RA,,0.04,0.0,WeatherDisplay:10.37,2013-03-06 23:54:00,
2013-03-06 23:59:00,41.6,41.6,29.62,SSW,208,11.5,11.5,100,0.01,RA,,0.04,0.0,WeatherDisplay:10.37,2013-03-06 23:59:00,